createdAt,value
2017-05-22T00:04:23.886Z,1013
2017-05-22T00:14:33.865Z,1013.1
2017-05-22T00:24:43.796Z,1013
2017-05-22T00:34:53.768Z,1012.8
2017-05-22T00:45:03.758Z,1012.8
2017-05-22T00:55:13.768Z,1012.8
2017-05-22T01:05:23.727Z,1012.8
2017-05-22T01:15:33.680Z,1012.7
2017-05-22T01:25:43.654Z,1012.7
2017-05-22T01:35:53.626Z,1012.5
2017-05-22T01:46:03.621Z,1012.4
2017-05-22T01:56:13.598Z,1012.4
2017-05-22T02:06:23.586Z,1012.3
2017-05-22T02:16:33.621Z,1012.2
2017-05-22T02:26:43.707Z,1012.2
2017-05-22T02:36:53.810Z,1012
2017-05-22T02:47:03.972Z,1012.1
2017-05-22T02:57:14.129Z,1012.1
2017-05-22T03:07:24.279Z,1012
2017-05-22T03:17:34.423Z,1011.9
2017-05-22T03:27:44.624Z,1011.8
2017-05-22T03:37:54.864Z,1011.9
2017-05-22T03:48:05.020Z,1011.8
2017-05-22T03:58:15.176Z,1011.7
2017-05-22T04:08:25.308Z,1011.7
2017-05-22T04:18:35.373Z,1011.8
2017-05-22T04:28:45.430Z,1011.7
2017-05-22T04:38:55.416Z,1011.6
2017-05-22T04:49:05.174Z,1011.5
2017-05-22T04:59:14.819Z,1011.5
2017-05-22T05:09:24.379Z,1011.5
2017-05-22T05:19:33.852Z,1011.4
2017-05-22T05:29:43.158Z,1011.4
2017-05-22T05:39:52.322Z,1011.3
2017-05-22T05:50:01.361Z,1011.4
2017-05-22T06:00:10.269Z,1011.3
2017-05-22T06:10:19.090Z,1011.4
2017-05-22T06:20:27.833Z,1011.5
2017-05-22T06:30:36.411Z,1011.4
2017-05-22T06:40:44.858Z,1011.5
2017-05-22T06:50:53.199Z,1011.4
2017-05-22T07:01:01.439Z,1011.3
2017-05-22T07:11:09.544Z,1011.4
2017-05-22T07:21:17.577Z,1011.4
2017-05-22T07:31:25.525Z,1011.5
2017-05-22T07:41:33.320Z,1011.4
2017-05-22T07:51:41.102Z,1011.3
2017-05-22T08:01:48.788Z,1011.2
2017-05-22T08:11:56.406Z,1011.1
2017-05-22T08:22:03.998Z,1011.1
2017-05-22T08:32:11.536Z,1011
2017-05-22T08:42:18.966Z,1010.9
2017-05-22T08:52:26.431Z,1010.9
2017-05-22T09:02:33.901Z,1010.9
2017-05-22T09:12:41.309Z,1010.8
2017-05-22T09:22:48.708Z,1010.7
2017-05-22T09:32:56.313Z,1010.6
2017-05-22T09:43:04.250Z,1010.8
2017-05-22T09:53:12.085Z,1010.4
2017-05-22T10:03:19.808Z,1010.5
2017-05-22T10:13:27.508Z,1010.4
2017-05-22T10:23:34.957Z,1010.2
2017-05-22T10:33:42.495Z,1010.2
2017-05-22T10:43:50.003Z,1010.2
2017-05-22T10:53:57.465Z,1010
2017-05-22T11:04:04.730Z,1009.9
2017-05-22T11:14:12.004Z,1009.7
2017-05-22T11:24:19.209Z,1009.6
2017-05-22T11:34:26.436Z,1009.7
2017-05-22T11:44:33.617Z,1009.5
2017-05-22T11:54:40.620Z,1009.5
2017-05-22T12:04:47.648Z,1009.6
2017-05-22T12:14:54.802Z,1009.5
2017-05-22T12:25:01.981Z,1009.2
2017-05-22T12:35:09.096Z,1009.2
2017-05-22T12:45:16.244Z,1009.1
2017-05-22T12:55:23.495Z,1009
2017-05-22T13:05:30.712Z,1009
2017-05-22T13:15:37.905Z,1008.8
2017-05-22T13:25:44.982Z,1008.6
2017-05-22T13:35:51.990Z,1008.4
2017-05-22T13:45:59.142Z,1008.3
2017-05-22T13:56:06.226Z,1008.2
2017-05-22T14:06:13.327Z,1008.2
2017-05-22T14:16:20.528Z,1008.2
2017-05-22T14:26:27.632Z,1008.1
2017-05-22T14:36:34.702Z,1008
2017-05-22T14:46:41.783Z,1007.9
2017-05-22T14:56:48.832Z,1007.8
2017-05-22T15:06:55.813Z,1007.8
2017-05-22T15:17:03.141Z,1007.6
2017-05-22T15:27:10.372Z,1007.5
2017-05-22T15:37:17.898Z,1007.5
2017-05-22T15:47:25.410Z,1007.5
2017-05-22T15:57:32.614Z,1007.3
2017-05-22T16:07:39.523Z,1007
2017-05-22T16:17:46.890Z,1007
2017-05-22T16:27:53.819Z,1006.9
2017-05-22T16:38:01.115Z,1006.7
2017-05-22T16:48:08.244Z,1006.7
2017-05-22T16:58:15.448Z,1006.6
2017-05-22T17:08:22.690Z,1006.5
2017-05-22T17:18:30.242Z,1006.5
2017-05-22T17:28:37.960Z,1006.4
2017-05-22T17:38:45.965Z,1006.4
2017-05-22T17:48:54.275Z,1006.4
2017-05-22T17:59:02.738Z,1006.5
2017-05-22T18:09:11.274Z,1006.5
2017-05-22T18:19:19.659Z,1006.5
2017-05-22T18:29:28.041Z,1006.5
2017-05-22T18:39:36.544Z,1006.5
2017-05-22T18:49:45.120Z,1006.3
2017-05-22T18:59:53.776Z,1006.3
2017-05-22T19:10:02.569Z,1006.3
2017-05-22T19:20:11.495Z,1006.4
2017-05-22T19:30:20.487Z,1006.2
2017-05-22T19:40:29.543Z,1006.5
2017-05-22T19:50:38.597Z,1006.4
2017-05-22T20:00:47.689Z,1006.4
2017-05-22T20:10:56.850Z,1006.4
2017-05-22T20:21:06.048Z,1006.3
2017-05-22T20:31:15.220Z,1006.4
2017-05-22T20:41:24.456Z,1006.3
2017-05-22T20:51:33.753Z,1006.3
2017-05-22T21:01:43.086Z,1006.3
2017-05-22T21:11:52.394Z,1006.2
2017-05-22T21:22:01.731Z,1006.1
2017-05-22T21:32:11.079Z,1006.3
2017-05-22T21:42:20.446Z,1006.2
2017-05-22T21:52:29.800Z,1006.2
2017-05-22T22:02:39.227Z,1006.3
2017-05-22T22:12:48.663Z,1006.3
2017-05-22T22:22:58.145Z,1006.2
2017-05-22T22:33:07.625Z,1006.1
2017-05-22T22:43:17.132Z,1006
2017-05-22T22:53:26.631Z,1005.9
2017-05-22T23:03:36.226Z,1005.9
2017-05-22T23:13:45.796Z,1005.8
2017-05-22T23:23:55.421Z,1005.7
2017-05-22T23:34:05.042Z,1005.7
2017-05-22T23:44:14.600Z,1005.6
2017-05-22T23:54:24.167Z,1005.5
